Terminal Aerodrome Forecast
Issued by NWS North Platte, NE

Home | Current Version | Previous Version | Text Only | Print | Product List | Glossary On
Versions: 1 2 3 4 5 6 7 8 9 10 11 12 13 14 15 16 17 18 19 20 21 22 23 24 25 26 27 28 29 30 31
402
FTUS43 KLBF 111410 AAC
TAFVTN
TAF AMD
KVTN 111410Z 1114/1212 13005KT 6SM BR OVC006
     FM111600 18007KT P6SM SCT006 BKN100
     FM111800 25008KT P6SM SCT100 BKN250
     FM112300 33010KT P6SM BKN120
     FM120200 33007KT P6SM OVC015=

USA.gov is the U.S. government's official web portal to all federal, state and local government web resources and services.